createdAt,value
2023-01-12T00:00:47.012Z,510.00
2023-01-12T00:01:47.007Z,458.10
2023-01-12T00:02:47.011Z,475.10
2023-01-12T00:03:47.023Z,264.40
2023-01-12T00:04:47.008Z,500.60
2023-01-12T00:05:46.952Z,455.40
2023-01-12T00:06:46.953Z,430.10
2023-01-12T00:07:46.928Z,457.40
2023-01-12T00:08:46.927Z,453.00
2023-01-12T00:09:46.964Z,348.50
2023-01-12T00:10:46.899Z,358.40
2023-01-12T00:11:46.903Z,385.90
2023-01-12T00:12:46.890Z,409.50
2023-01-12T00:13:46.892Z,380.90
2023-01-12T00:14:46.907Z,471.50
2023-01-12T00:15:46.893Z,323.20
2023-01-12T00:16:46.850Z,340.40
2023-01-12T00:17:46.825Z,407.50
2023-01-12T00:18:46.815Z,353.30
2023-01-12T00:19:46.806Z,333.10
2023-01-12T00:20:46.841Z,328.70
2023-01-12T00:21:46.784Z,369.10
2023-01-12T00:22:46.772Z,339.10
2023-01-12T00:23:46.769Z,412.70
2023-01-12T00:24:46.774Z,390.10
2023-01-12T00:25:46.785Z,389.60
2023-01-12T00:26:46.721Z,394.90
2023-01-12T00:27:46.776Z,387.80
2023-01-12T00:28:46.692Z,382.50
2023-01-12T00:29:46.696Z,367.50
2023-01-12T00:30:46.705Z,380.70
2023-01-12T00:31:46.655Z,396.90
2023-01-12T00:32:46.656Z,399.30
2023-01-12T00:33:46.633Z,388.90
2023-01-12T00:34:46.642Z,405.90
2023-01-12T00:35:46.667Z,344.50
2023-01-12T00:36:46.619Z,365.30
2023-01-12T00:37:46.606Z,377.80
2023-01-12T00:38:46.602Z,399.30
2023-01-12T00:40:00.784Z,345.50
2023-01-12T00:40:47.602Z,348.40
2023-01-12T00:41:46.569Z,377.10
2023-01-12T00:42:46.584Z,368.90
2023-01-12T00:43:46.534Z,378.40
2023-01-12T00:44:46.540Z,370.00
2023-01-12T00:45:46.549Z,347.20
2023-01-12T00:46:46.502Z,345.50
2023-01-12T00:47:46.508Z,362.50
2023-01-12T00:48:46.499Z,372.90
2023-01-12T00:49:46.522Z,370.70
2023-01-12T00:50:46.497Z,365.40
2023-01-12T00:51:46.439Z,345.40
2023-01-12T00:52:46.436Z,353.70
2023-01-12T00:53:46.439Z,375.70
2023-01-12T00:54:46.421Z,366.90
2023-01-12T00:55:46.455Z,370.00
2023-01-12T00:56:46.402Z,404.10
2023-01-12T00:57:46.387Z,355.10
2023-01-12T00:58:46.362Z,367.10
2023-01-12T00:59:46.363Z,375.90
2023-01-12T01:00:46.397Z,357.50
2023-01-12T01:01:46.396Z,397.60
2023-01-12T01:02:46.423Z,382.00
2023-01-12T01:03:46.314Z,342.30
2023-01-12T01:04:46.301Z,391.90
2023-01-12T01:05:46.315Z,384.80
2023-01-12T01:06:46.284Z,359.20
2023-01-12T01:07:46.277Z,364.10
2023-01-12T01:08:46.273Z,376.40
2023-01-12T01:09:46.260Z,382.00
2023-01-12T01:10:46.273Z,403.70
2023-01-12T01:11:46.235Z,390.80
2023-01-12T01:12:46.226Z,339.40
2023-01-12T01:13:46.241Z,360.70
2023-01-12T01:14:46.195Z,396.80
2023-01-12T01:15:46.232Z,354.10
2023-01-12T01:16:46.171Z,369.00
2023-01-12T01:17:46.166Z,397.40
2023-01-12T01:18:46.153Z,360.90
2023-01-12T01:19:46.162Z,362.00
2023-01-12T01:20:46.172Z,349.30
2023-01-12T01:21:46.123Z,356.50
2023-01-12T01:22:46.114Z,332.90
2023-01-12T01:23:46.137Z,318.60
2023-01-12T01:24:46.092Z,322.30
2023-01-12T01:25:46.118Z,326.40
2023-01-12T01:26:46.078Z,336.10
2023-01-12T01:27:46.056Z,336.40
2023-01-12T01:28:46.051Z,355.40
2023-01-12T01:29:46.023Z,354.10
2023-01-12T01:30:46.102Z,339.40
2023-01-12T01:31:45.997Z,338.80
2023-01-12T01:32:46.003Z,336.20
2023-01-12T01:33:45.995Z,351.30
2023-01-12T01:34:45.979Z,348.10
2023-01-12T01:35:46.005Z,334.70
2023-01-12T01:36:45.982Z,325.30
2023-01-12T01:37:45.954Z,324.40
2023-01-12T01:38:45.938Z,339.00
2023-01-12T01:39:45.901Z,321.00
2023-01-12T01:40:45.951Z,293.40
2023-01-12T01:41:45.891Z,266.20
2023-01-12T01:42:45.916Z,252.20
2023-01-12T01:43:45.883Z,257.00
2023-01-12T01:44:45.865Z,271.10
2023-01-12T01:45:45.884Z,305.00
2023-01-12T01:46:45.960Z,257.80
2023-01-12T01:47:45.820Z,291.80
2023-01-12T01:48:45.829Z,277.80
2023-01-12T01:49:45.823Z,299.90
2023-01-12T01:50:45.841Z,335.00
2023-01-12T01:51:45.786Z,313.30
2023-01-12T01:52:45.795Z,330.60
2023-01-12T01:53:45.757Z,348.10
2023-01-12T01:54:45.764Z,343.30
2023-01-12T01:55:45.770Z,343.90
2023-01-12T01:56:45.738Z,377.70
2023-01-12T01:57:45.723Z,373.00
2023-01-12T01:58:45.715Z,403.30
2023-01-12T01:59:45.685Z,368.60
2023-01-12T02:00:45.717Z,382.10
2023-01-12T02:01:45.732Z,400.00
2023-01-12T02:02:45.693Z,423.80
2023-01-12T02:03:45.633Z,407.00
2023-01-12T02:04:45.653Z,408.80
2023-01-12T02:05:45.675Z,374.00
2023-01-12T02:06:45.620Z,394.50
2023-01-12T02:07:45.596Z,404.30
2023-01-12T02:08:45.593Z,365.70
2023-01-12T02:09:45.576Z,322.90
2023-01-12T02:10:45.611Z,312.30
2023-01-12T02:11:45.560Z,336.30
2023-01-12T02:12:45.557Z,292.20
2023-01-12T02:13:45.537Z,294.20
2023-01-12T02:14:45.530Z,304.30
2023-01-12T02:15:45.558Z,276.80
2023-01-12T02:16:45.497Z,264.30
2023-01-12T02:17:45.499Z,290.00
2023-01-12T02:18:45.478Z,410.60
2023-01-12T02:19:45.466Z,241.90
2023-01-12T02:20:45.500Z,257.90
2023-01-12T02:21:45.440Z,313.30
2023-01-12T02:22:45.478Z,355.30
2023-01-12T02:23:45.425Z,224.40
2023-01-12T02:24:45.425Z,446.20
2023-01-12T02:25:45.436Z,292.80
2023-01-12T02:26:45.403Z,275.40
2023-01-12T02:27:45.394Z,328.80
2023-01-12T02:28:45.380Z,313.30
2023-01-12T02:29:45.370Z,326.90
2023-01-12T02:30:45.379Z,302.60
2023-01-12T02:31:45.339Z,292.40
2023-01-12T02:32:45.330Z,433.40
2023-01-12T02:33:45.319Z,723.10
2023-01-12T02:34:45.303Z,733.30
2023-01-12T02:35:45.342Z,485.90
2023-01-12T02:36:45.269Z,570.00
2023-01-12T02:37:45.257Z,670.90
2023-01-12T02:38:45.259Z,575.10
2023-01-12T02:39:45.239Z,516.30
2023-01-12T02:40:45.279Z,401.50
2023-01-12T02:41:45.219Z,449.70
2023-01-12T02:42:45.230Z,487.40
2023-01-12T02:43:45.193Z,510.90
2023-01-12T02:44:45.203Z,425.10
2023-01-12T02:45:45.219Z,561.90
2023-01-12T02:46:45.220Z,592.40
2023-01-12T02:47:45.167Z,346.70
2023-01-12T02:48:45.150Z,438.40
2023-01-12T02:49:45.150Z,391.50
2023-01-12T02:50:45.165Z,466.20
2023-01-12T02:51:45.105Z,393.60
2023-01-12T02:52:45.097Z,393.20
2023-01-12T02:53:45.087Z,410.30
2023-01-12T02:54:45.080Z,438.00
2023-01-12T02:55:45.108Z,398.20
2023-01-12T02:56:45.042Z,392.80
2023-01-12T02:57:45.064Z,386.60
2023-01-12T02:58:45.020Z,390.30
2023-01-12T02:59:45.028Z,376.70
2023-01-12T03:00:45.131Z,394.50
2023-01-12T03:01:45.040Z,414.30
2023-01-12T03:02:45.061Z,382.10
2023-01-12T03:03:44.995Z,383.40
2023-01-12T03:04:44.978Z,374.40
2023-01-12T03:05:44.979Z,401.40
2023-01-12T03:06:44.946Z,387.90
2023-01-12T03:07:44.929Z,369.90
2023-01-12T03:08:44.954Z,398.70
2023-01-12T03:09:44.910Z,419.70
2023-01-12T03:10:44.929Z,389.20
2023-01-12T03:11:44.876Z,397.40
2023-01-12T03:12:44.890Z,386.80
2023-01-12T03:13:44.880Z,373.20
2023-01-12T03:14:44.871Z,386.00
2023-01-12T03:15:44.866Z,386.60
2023-01-12T03:16:44.835Z,400.00
2023-01-12T03:17:44.847Z,396.50
2023-01-12T03:18:44.806Z,407.40
2023-01-12T03:19:44.801Z,398.50
2023-01-12T03:20:44.834Z,417.20
2023-01-12T03:21:44.761Z,396.10
2023-01-12T03:22:44.761Z,415.60
2023-01-12T03:23:44.744Z,409.90
2023-01-12T03:24:44.744Z,398.80
2023-01-12T03:25:44.755Z,400.40
2023-01-12T03:26:44.713Z,410.90
2023-01-12T03:27:44.702Z,412.80
2023-01-12T03:28:44.697Z,418.60
2023-01-12T03:29:44.690Z,420.10
2023-01-12T03:30:44.739Z,421.60
2023-01-12T03:31:44.679Z,427.00
2023-01-12T03:32:44.632Z,407.80
2023-01-12T03:33:44.651Z,440.10
2023-01-12T03:34:44.655Z,427.80
2023-01-12T03:35:44.663Z,415.20
2023-01-12T03:36:44.612Z,390.80
2023-01-12T03:37:44.591Z,370.40
2023-01-12T03:38:44.595Z,351.70
2023-01-12T03:39:44.553Z,369.20
2023-01-12T03:40:44.595Z,398.20
2023-01-12T03:41:44.556Z,353.60
2023-01-12T03:42:44.551Z,398.50
2023-01-12T03:43:44.529Z,364.00
2023-01-12T03:44:44.524Z,374.90
2023-01-12T03:45:44.539Z,404.50
2023-01-12T03:46:44.576Z,372.20
2023-01-12T03:47:44.486Z,383.70
2023-01-12T03:48:44.460Z,435.70
2023-01-12T03:49:44.452Z,460.70
2023-01-12T03:50:44.497Z,437.10
2023-01-12T03:51:44.422Z,425.10
2023-01-12T03:52:44.422Z,398.60
2023-01-12T03:53:44.405Z,388.90
2023-01-12T03:54:44.447Z,398.30
2023-01-12T03:55:44.431Z,385.40
2023-01-12T03:56:44.381Z,371.90
2023-01-12T03:57:44.363Z,369.00
2023-01-12T03:58:44.357Z,399.60
2023-01-12T03:59:44.341Z,378.40
2023-01-12T04:00:44.450Z,371.80
2023-01-12T04:01:44.414Z,372.30
2023-01-12T04:02:44.307Z,107.50
2023-01-12T04:03:44.315Z,392.40
2023-01-12T04:04:44.304Z,396.00
2023-01-12T04:05:44.313Z,423.90
2023-01-12T04:06:44.268Z,525.70
2023-01-12T04:07:44.252Z,512.80
2023-01-12T04:08:44.240Z,369.60
2023-01-12T04:09:44.228Z,187.80
2023-01-12T04:10:44.278Z,197.10
2023-01-12T04:11:44.208Z,134.50
2023-01-12T04:12:44.192Z,138.50
2023-01-12T04:13:44.174Z,147.30
2023-01-12T04:14:46.217Z,275.80
2023-01-12T04:15:44.180Z,336.60
2023-01-12T04:16:44.144Z,245.70
2023-01-12T04:17:44.137Z,190.60
2023-01-12T04:18:44.149Z,235.80
2023-01-12T04:19:44.122Z,282.70
2023-01-12T04:20:44.147Z,215.10
2023-01-12T04:21:44.108Z,230.70
2023-01-12T04:22:44.107Z,265.90
2023-01-12T04:23:44.094Z,225.30
2023-01-12T04:24:44.084Z,286.20
2023-01-12T04:25:44.099Z,298.90
2023-01-12T04:26:44.035Z,261.30
2023-01-12T04:27:44.031Z,225.00
2023-01-12T04:28:44.041Z,203.80
2023-01-12T04:29:44.004Z,332.40
2023-01-12T04:30:44.047Z,266.40
2023-01-12T04:31:44.074Z,197.20
2023-01-12T04:32:43.989Z,204.20
2023-01-12T04:33:43.960Z,376.70
2023-01-12T04:34:43.952Z,234.00
2023-01-12T04:35:43.964Z,214.00
2023-01-12T04:36:43.953Z,250.20
2023-01-12T04:37:43.932Z,103.20
2023-01-12T04:38:43.915Z,330.60
2023-01-12T04:39:43.892Z,191.60
2023-01-12T04:40:43.952Z,268.80
2023-01-12T04:41:43.877Z,244.10
2023-01-12T04:42:43.849Z,147.70
2023-01-12T04:43:43.833Z,96.60
2023-01-12T04:44:43.827Z,240.40
2023-01-12T04:45:43.996Z,292.10
2023-01-12T04:46:43.834Z,339.80
2023-01-12T04:47:43.800Z,88.90
2023-01-12T04:48:43.788Z,53.70
2023-01-12T04:49:43.786Z,312.20
2023-01-12T04:50:43.824Z,282.20
2023-01-12T04:51:43.746Z,212.60
2023-01-12T04:52:43.766Z,49.70
2023-01-12T04:53:43.789Z,122.40
2023-01-12T04:54:43.716Z,243.00
2023-01-12T04:55:43.757Z,402.70
2023-01-12T04:56:43.699Z,58.30
2023-01-12T04:57:43.679Z,136.60
2023-01-12T04:58:43.678Z,279.90
2023-01-12T04:59:43.660Z,39.50
2023-01-12T05:00:43.704Z,318.90
2023-01-12T05:01:43.777Z,255.20
2023-01-12T05:02:43.627Z,51.50
2023-01-12T05:03:43.663Z,402.20
2023-01-12T05:04:43.611Z,57.20
2023-01-12T05:05:43.636Z,125.80
2023-01-12T05:06:43.587Z,253.70
2023-01-12T05:07:43.569Z,347.10
2023-01-12T05:08:43.559Z,47.30
2023-01-12T05:09:43.556Z,415.40
2023-01-12T05:10:43.564Z,60.00
2023-01-12T05:11:43.523Z,161.90
2023-01-12T05:12:43.516Z,330.50
2023-01-12T05:13:43.508Z,188.40
2023-01-12T05:14:43.499Z,39.70
2023-01-12T05:15:43.484Z,304.30
2023-01-12T05:16:43.490Z,54.90
2023-01-12T05:17:43.467Z,239.50
2023-01-12T05:18:43.445Z,310.50
2023-01-12T05:19:43.428Z,73.10
2023-01-12T05:20:43.457Z,312.80
2023-01-12T05:21:43.423Z,165.00
2023-01-12T05:22:43.403Z,167.80
2023-01-12T05:23:43.386Z,169.40
2023-01-12T05:24:43.379Z,55.50
2023-01-12T05:25:43.401Z,460.20
2023-01-12T05:26:43.360Z,41.20
2023-01-12T05:27:43.351Z,48.40
2023-01-12T05:28:43.330Z,322.60
2023-01-12T05:29:43.313Z,57.30
2023-01-12T05:30:43.364Z,254.80
2023-01-12T05:31:43.301Z,161.30
2023-01-12T05:32:43.288Z,167.40
2023-01-12T05:33:43.282Z,200.50
2023-01-12T05:34:43.275Z,41.40
2023-01-12T05:35:43.301Z,122.80
2023-01-12T05:36:43.258Z,203.60
2023-01-12T05:37:43.237Z,393.00
2023-01-12T05:38:43.222Z,45.50
2023-01-12T05:39:43.222Z,193.90
2023-01-12T05:40:43.239Z,171.60
2023-01-12T05:41:43.186Z,158.10
2023-01-12T05:42:43.186Z,38.80
2023-01-12T05:43:43.161Z,392.90
2023-01-12T05:44:43.143Z,62.60
2023-01-12T05:45:43.219Z,198.00
2023-01-12T05:46:43.118Z,336.50
2023-01-12T05:47:43.111Z,158.70
2023-01-12T05:48:43.089Z,42.10
2023-01-12T05:49:43.107Z,228.00
2023-01-12T05:50:43.121Z,46.80
2023-01-12T05:51:43.074Z,199.40
2023-01-12T05:52:43.053Z,370.50
2023-01-12T05:53:43.052Z,62.80
2023-01-12T05:54:43.045Z,272.20
2023-01-12T05:55:43.065Z,56.50
2023-01-12T05:56:43.018Z,145.10
2023-01-12T05:57:43.002Z,133.40
2023-01-12T05:58:42.984Z,251.40
2023-01-12T05:59:42.975Z,54.00
2023-01-12T06:00:43.023Z,120.90
2023-01-12T06:01:42.981Z,333.50
2023-01-12T06:02:42.968Z,150.80
2023-01-12T06:03:42.958Z,47.30
2023-01-12T06:04:43.031Z,209.40
2023-01-12T06:05:42.930Z,232.00
2023-01-12T06:06:42.949Z,177.60
2023-01-12T06:07:42.897Z,77.80
2023-01-12T06:08:42.870Z,241.00
2023-01-12T06:09:42.876Z,244.90
2023-01-12T06:10:42.853Z,59.80
2023-01-12T06:11:42.916Z,107.80
2023-01-12T06:12:42.829Z,121.70
2023-01-12T06:13:42.858Z,44.10
2023-01-12T06:14:42.822Z,79.10
2023-01-12T06:15:42.816Z,295.20
2023-01-12T06:16:42.857Z,143.10
2023-01-12T06:17:42.805Z,39.30
2023-01-12T06:18:42.767Z,160.80
2023-01-12T06:19:42.765Z,198.00
2023-01-12T06:20:42.754Z,43.60
2023-01-12T06:21:42.788Z,252.30
2023-01-12T06:22:42.732Z,206.20
2023-01-12T06:23:42.709Z,77.60
2023-01-12T06:24:42.711Z,149.80
2023-01-12T06:25:42.731Z,239.00
2023-01-12T06:26:42.740Z,60.70
2023-01-12T06:27:42.677Z,251.40
2023-01-12T06:28:42.670Z,134.80
2023-01-12T06:29:42.649Z,141.10
2023-01-12T06:30:42.651Z,147.50
2023-01-12T06:31:42.651Z,112.00
2023-01-12T06:32:42.630Z,120.90
2023-01-12T06:33:42.593Z,61.30
2023-01-12T06:34:42.584Z,189.50
2023-01-12T06:35:42.586Z,152.00
2023-01-12T06:36:42.639Z,49.40
2023-01-12T06:37:42.555Z,129.90
2023-01-12T06:38:42.557Z,114.80
2023-01-12T06:39:42.565Z,239.80
2023-01-12T06:40:42.531Z,71.30
2023-01-12T06:41:42.572Z,50.40
2023-01-12T06:42:42.504Z,183.00
2023-01-12T06:43:42.501Z,90.80
2023-01-12T06:44:42.492Z,77.50
2023-01-12T06:45:42.490Z,65.80
2023-01-12T06:46:42.522Z,129.80
2023-01-12T06:47:42.436Z,152.90
2023-01-12T06:48:42.452Z,70.70
2023-01-12T06:49:42.426Z,88.30
2023-01-12T06:50:42.461Z,125.80
2023-01-12T06:51:42.403Z,78.70
2023-01-12T06:52:42.423Z,66.00
2023-01-12T06:53:42.375Z,55.30
2023-01-12T06:54:42.370Z,87.70
2023-01-12T06:55:42.351Z,129.10
2023-01-12T06:56:42.334Z,58.00
2023-01-12T06:57:42.399Z,49.90
2023-01-12T06:58:42.332Z,157.40
2023-01-12T06:59:42.347Z,66.40
2023-01-12T07:00:42.326Z,94.90
2023-01-12T07:01:42.338Z,59.60
2023-01-12T07:02:42.294Z,55.20
2023-01-12T07:03:42.275Z,119.20
2023-01-12T07:04:42.304Z,152.50
2023-01-12T07:05:42.270Z,58.60
2023-01-12T07:06:42.258Z,77.80
2023-01-12T07:07:42.286Z,108.50
2023-01-12T07:08:42.243Z,147.90
2023-01-12T07:09:42.226Z,60.60
2023-01-12T07:10:42.187Z,70.90
2023-01-12T07:11:42.212Z,101.10
2023-01-12T07:12:42.222Z,99.10
2023-01-12T07:13:42.174Z,94.00
2023-01-12T07:14:42.155Z,100.40
2023-01-12T07:15:42.165Z,116.50
2023-01-12T07:16:42.117Z,143.50
2023-01-12T07:17:42.160Z,98.00
2023-01-12T07:18:42.079Z,69.60
2023-01-12T07:19:42.091Z,59.40
2023-01-12T07:20:42.089Z,86.20
2023-01-12T07:21:42.086Z,105.30
2023-01-12T07:22:42.102Z,79.00
2023-01-12T07:23:42.063Z,69.00
2023-01-12T07:24:42.021Z,67.50
2023-01-12T07:25:42.056Z,84.30
2023-01-12T07:26:42.028Z,97.50
2023-01-12T07:27:42.053Z,83.20
2023-01-12T07:28:41.968Z,125.90
2023-01-12T07:29:42.011Z,74.40
2023-01-12T07:30:41.979Z,71.80
2023-01-12T07:31:41.947Z,68.30
2023-01-12T07:32:41.977Z,153.70
2023-01-12T07:33:41.933Z,152.00
2023-01-12T07:34:41.944Z,72.00
2023-01-12T07:35:41.925Z,119.60
2023-01-12T07:36:41.917Z,245.80
2023-01-12T07:37:41.935Z,57.00
2023-01-12T07:38:41.890Z,234.10
2023-01-12T07:39:41.881Z,188.30
2023-01-12T07:40:41.862Z,93.10
2023-01-12T07:41:41.847Z,68.30
2023-01-12T07:42:41.866Z,68.70
2023-01-12T07:43:41.829Z,217.10
2023-01-12T07:44:41.837Z,261.40
2023-01-12T07:45:41.810Z,103.50
2023-01-12T07:46:41.820Z,72.80
2023-01-12T07:47:41.836Z,388.50
2023-01-12T07:48:41.778Z,59.80
2023-01-12T07:49:41.758Z,416.20
2023-01-12T07:50:41.744Z,280.20
2023-01-12T07:51:41.723Z,157.70
2023-01-12T07:52:41.757Z,105.70
2023-01-12T07:53:41.767Z,94.50
2023-01-12T07:54:41.709Z,121.10
2023-01-12T07:55:41.684Z,265.60
2023-01-12T07:56:44.088Z,137.70
2023-01-12T07:57:41.686Z,205.30
2023-01-12T07:58:41.718Z,149.70
2023-01-12T07:59:41.697Z,189.80
2023-01-12T08:00:41.626Z,184.90
2023-01-12T08:01:41.694Z,174.90
2023-01-12T08:02:41.606Z,336.80
2023-01-12T08:03:41.629Z,616.40
2023-01-12T08:04:41.599Z,165.80
2023-01-12T08:05:41.677Z,543.20
2023-01-12T08:06:41.589Z,157.50
2023-01-12T08:07:41.555Z,178.50
2023-01-12T08:08:41.590Z,743.80
2023-01-12T08:09:41.541Z,190.30
2023-01-12T08:10:41.514Z,464.40
2023-01-12T08:11:41.502Z,161.00
2023-01-12T08:12:41.492Z,623.20
2023-01-12T08:13:41.542Z,164.60
2023-01-12T08:14:41.499Z,1010.00
2023-01-12T08:15:41.473Z,149.50
2023-01-12T08:16:41.436Z,1999.90
2023-01-12T08:17:41.439Z,144.30
2023-01-12T08:18:41.470Z,1999.90
2023-01-12T08:19:41.444Z,321.90
2023-01-12T08:20:41.412Z,190.20
2023-01-12T08:21:41.397Z,1999.90
2023-01-12T08:22:41.381Z,1999.90
2023-01-12T08:23:41.980Z,1999.90
2023-01-12T08:24:41.349Z,1999.90
2023-01-12T08:25:41.346Z,683.50
2023-01-12T08:26:41.359Z,221.20
2023-01-12T08:27:41.333Z,229.80
2023-01-12T08:28:41.360Z,1999.90
2023-01-12T08:29:41.327Z,1999.90
2023-01-12T08:30:41.309Z,1999.90
2023-01-12T08:31:41.295Z,1999.90
2023-01-12T08:32:41.340Z,1999.90
2023-01-12T08:33:41.313Z,573.40
2023-01-12T08:34:41.266Z,1999.90
2023-01-12T08:35:41.220Z,1999.90
2023-01-12T08:36:43.049Z,1999.90
2023-01-12T08:37:41.219Z,1999.90
2023-01-12T08:38:41.239Z,1999.90
2023-01-12T08:39:41.189Z,1999.90
2023-01-12T08:40:41.168Z,1999.90
2023-01-12T08:41:41.173Z,1999.90
2023-01-12T08:42:41.150Z,1999.90
2023-01-12T08:43:41.199Z,1999.90
2023-01-12T08:44:41.111Z,1999.90
2023-01-12T08:45:41.111Z,1999.90
2023-01-12T08:46:41.155Z,1999.90
2023-01-12T08:47:41.108Z,1999.90
2023-01-12T08:48:41.115Z,1999.90
2023-01-12T08:49:41.057Z,1999.90
2023-01-12T08:50:41.068Z,1999.90
2023-01-12T08:51:41.053Z,1999.90
2023-01-12T08:52:41.038Z,1999.90
2023-01-12T08:53:41.065Z,1999.90
2023-01-12T08:54:41.002Z,1999.90
2023-01-12T08:55:41.014Z,1999.90
2023-01-12T08:56:40.995Z,1999.90
2023-01-12T08:57:40.990Z,1999.90
2023-01-12T08:58:41.028Z,1999.90
2023-01-12T08:59:40.965Z,1999.90
2023-01-12T09:00:41.010Z,1999.90
2023-01-12T09:01:41.145Z,1999.90
2023-01-12T09:02:40.964Z,1999.90
2023-01-12T09:03:40.988Z,1999.90
2023-01-12T09:04:40.924Z,1999.90
2023-01-12T09:05:40.919Z,961.30
2023-01-12T09:06:40.880Z,1999.90
2023-01-12T09:07:40.892Z,1999.90
2023-01-12T09:08:40.845Z,448.10
2023-01-12T09:09:40.886Z,1999.90
2023-01-12T09:10:40.827Z,1999.90
2023-01-12T09:11:40.832Z,993.20
2023-01-12T09:12:40.791Z,55.00
2023-01-12T09:13:40.785Z,1249.10
2023-01-12T09:14:40.812Z,47.70
2023-01-12T09:15:41.177Z,125.20
2023-01-12T09:16:40.846Z,683.70
2023-01-12T09:17:40.767Z,707.40
2023-01-12T09:18:40.753Z,28.00
2023-01-12T09:19:40.757Z,142.90
2023-01-12T09:20:40.721Z,195.00
2023-01-12T09:21:40.736Z,18.00
2023-01-12T09:22:40.688Z,17.10
2023-01-12T09:23:40.715Z,17.30
2023-01-12T09:24:40.734Z,19.20
2023-01-12T09:25:40.673Z,19.30
2023-01-12T09:26:40.649Z,19.50
2023-01-12T09:27:40.635Z,18.60
2023-01-12T09:28:40.638Z,17.60
2023-01-12T09:29:40.652Z,21.30
2023-01-12T09:30:40.593Z,20.10
2023-01-12T09:31:40.633Z,20.30
2023-01-12T09:32:40.589Z,18.80
2023-01-12T09:33:40.565Z,21.30
2023-01-12T09:34:40.628Z,24.60
2023-01-12T09:35:40.555Z,24.20
2023-01-12T09:36:40.600Z,25.80
2023-01-12T09:37:40.562Z,23.60
2023-01-12T09:38:40.521Z,27.10
2023-01-12T09:39:40.541Z,25.00
2023-01-12T09:40:40.483Z,21.60
2023-01-12T09:41:40.501Z,22.30
2023-01-12T09:42:40.464Z,19.00
2023-01-12T09:43:40.442Z,20.40
2023-01-12T09:44:40.466Z,12.40
2023-01-12T09:45:40.445Z,11.10
2023-01-12T09:46:40.494Z,10.40
2023-01-12T09:47:40.420Z,10.40
2023-01-12T09:48:40.388Z,11.30
2023-01-12T09:49:40.410Z,10.60
2023-01-12T09:50:40.402Z,11.40
2023-01-12T09:51:40.395Z,9.20
2023-01-12T09:52:40.350Z,10.30
2023-01-12T09:53:40.373Z,9.40
2023-01-12T09:54:40.387Z,9.50
2023-01-12T09:55:40.334Z,10.40
2023-01-12T09:56:40.320Z,11.10
2023-01-12T09:57:40.293Z,50.80
2023-01-12T09:58:40.314Z,12.30
2023-01-12T09:59:40.266Z,11.70
2023-01-12T10:00:40.336Z,10.50
2023-01-12T10:01:40.324Z,8.70
2023-01-12T10:02:40.451Z,10.90
2023-01-12T10:03:40.294Z,11.10
2023-01-12T10:04:40.234Z,12.20
2023-01-12T10:05:40.465Z,11.20
2023-01-12T10:06:40.192Z,13.40
2023-01-12T10:07:42.107Z,12.40
2023-01-12T10:08:40.180Z,11.60
2023-01-12T10:09:40.166Z,12.80
2023-01-12T10:10:40.206Z,16.70
2023-01-12T10:11:40.132Z,13.90
2023-01-12T10:12:40.116Z,15.00
2023-01-12T10:13:40.086Z,13.00
2023-01-12T10:14:40.156Z,13.20
2023-01-12T10:15:40.144Z,14.10
2023-01-12T10:16:40.160Z,14.10
2023-01-12T10:17:50.740Z,12.40
2023-01-12T10:18:41.095Z,11.70
2023-01-12T10:19:40.049Z,11.30
2023-01-12T10:20:40.036Z,9.70
2023-01-12T10:21:40.072Z,10.10
2023-01-12T10:22:40.010Z,16.50
2023-01-12T10:23:40.055Z,9.40
2023-01-12T10:24:39.995Z,10.00
2023-01-12T10:25:39.977Z,12.40
2023-01-12T10:26:40.023Z,10.90
2023-01-12T10:27:40.821Z,10.60
2023-01-12T10:28:39.946Z,11.70
2023-01-12T10:29:39.937Z,13.50
2023-01-12T10:30:39.933Z,12.30
2023-01-12T10:31:39.995Z,12.80
2023-01-12T10:32:41.965Z,16.90
2023-01-12T10:33:39.889Z,9.90
2023-01-12T10:34:39.859Z,11.50
2023-01-12T10:35:39.907Z,10.90
2023-01-12T10:36:39.915Z,11.10
2023-01-12T10:37:39.839Z,13.80
2023-01-12T10:38:39.847Z,11.60
2023-01-12T10:39:39.842Z,15.70
2023-01-12T10:40:39.797Z,21.70
2023-01-12T10:41:39.801Z,12.00
2023-01-12T10:42:39.798Z,12.00
2023-01-12T10:43:39.759Z,20.60
2023-01-12T10:44:39.777Z,11.80
2023-01-12T10:45:39.795Z,12.50
2023-01-12T10:46:39.784Z,12.10
2023-01-12T10:47:39.725Z,13.20
2023-01-12T10:48:39.741Z,12.50
2023-01-12T10:49:39.719Z,12.70
2023-01-12T10:50:39.703Z,12.40
2023-01-12T10:51:39.720Z,18.70
2023-01-12T10:52:39.672Z,12.70
2023-01-12T10:53:39.679Z,15.50
2023-01-12T10:54:39.660Z,10.10
2023-01-12T10:55:39.675Z,11.10
2023-01-12T10:56:39.695Z,10.90
2023-01-12T10:57:39.604Z,12.30
2023-01-12T10:58:39.612Z,28.20
2023-01-12T10:59:39.591Z,9.50
2023-01-12T11:00:39.629Z,10.40
2023-01-12T11:01:39.744Z,8.70
2023-01-12T11:02:39.636Z,8.50
2023-01-12T11:03:39.550Z,7.80
2023-01-12T11:04:39.532Z,8.00
2023-01-12T11:05:39.552Z,8.10
2023-01-12T11:06:39.558Z,8.20
2023-01-12T11:07:39.525Z,7.50
2023-01-12T11:08:39.519Z,7.40
2023-01-12T11:09:39.490Z,8.20
2023-01-12T11:10:39.481Z,7.70
2023-01-12T11:11:39.482Z,7.80
2023-01-12T11:12:39.429Z,8.40
2023-01-12T11:13:39.426Z,7.10
2023-01-12T11:14:39.440Z,7.30
2023-01-12T11:15:39.422Z,8.80
2023-01-12T11:16:39.472Z,7.30
2023-01-12T11:17:39.413Z,8.50
2023-01-12T11:18:39.365Z,9.40
2023-01-12T11:19:39.367Z,7.30
2023-01-12T11:20:39.359Z,8.10
2023-01-12T11:21:39.373Z,8.40
2023-01-12T11:22:39.335Z,7.40
2023-01-12T11:23:39.312Z,8.20
2023-01-12T11:24:39.324Z,8.80
2023-01-12T11:25:39.292Z,9.10
2023-01-12T11:26:39.341Z,11.70
2023-01-12T11:27:39.275Z,12.50
2023-01-12T11:28:39.281Z,12.30
2023-01-12T11:29:39.247Z,12.80
2023-01-12T11:30:39.285Z,9.70
2023-01-12T11:31:39.242Z,10.90
2023-01-12T11:32:39.216Z,10.80
2023-01-12T11:33:39.219Z,9.80
2023-01-12T11:34:39.196Z,10.70
2023-01-12T11:35:39.197Z,9.80
2023-01-12T11:36:39.250Z,10.50
2023-01-12T11:37:39.168Z,10.10
2023-01-12T11:38:39.158Z,10.80
2023-01-12T11:39:39.115Z,48.60
2023-01-12T11:40:39.131Z,42.00
2023-01-12T11:41:39.151Z,94.90
2023-01-12T11:42:39.128Z,78.00
2023-01-12T11:43:39.087Z,64.60
2023-01-12T11:44:39.119Z,85.00
2023-01-12T11:45:39.089Z,56.30
2023-01-12T11:46:39.102Z,52.10
2023-01-12T11:47:41.639Z,38.80
2023-01-12T11:48:39.048Z,51.90
2023-01-12T11:49:39.024Z,52.90
2023-01-12T11:50:39.048Z,51.00
2023-01-12T11:51:39.045Z,50.30
2023-01-12T11:52:38.984Z,52.70
2023-01-12T11:53:41.310Z,53.10
2023-01-12T11:54:38.983Z,49.30
2023-01-12T11:55:38.949Z,49.70
2023-01-12T11:56:38.996Z,53.80
2023-01-12T11:57:38.940Z,49.10
2023-01-12T11:58:38.931Z,46.30
2023-01-12T11:59:40.869Z,49.80
2023-01-12T12:00:38.891Z,59.10
2023-01-12T12:01:38.887Z,73.30
2023-01-12T12:02:39.009Z,80.20
2023-01-12T12:03:39.109Z,49.10
2023-01-12T12:04:38.838Z,65.80
2023-01-12T12:05:41.202Z,45.20
2023-01-12T12:06:38.879Z,58.10
2023-01-12T12:07:38.863Z,46.60
2023-01-12T12:08:38.809Z,50.80
2023-01-12T12:09:38.781Z,60.10
2023-01-12T12:10:38.794Z,45.90
2023-01-12T12:11:41.605Z,45.50
2023-01-12T12:12:38.785Z,52.00
2023-01-12T12:13:38.880Z,77.60
2023-01-12T12:14:38.735Z,55.70
2023-01-12T12:15:38.747Z,59.10
2023-01-12T12:16:38.782Z,66.00
2023-01-12T12:17:41.614Z,58.20
2023-01-12T12:18:38.720Z,57.30
2023-01-12T12:19:38.692Z,57.90
2023-01-12T12:20:38.693Z,59.50
2023-01-12T12:21:38.662Z,60.00
2023-01-12T12:22:38.707Z,57.40
2023-01-12T12:23:39.358Z,60.40
2023-01-12T12:24:38.651Z,57.00
2023-01-12T12:25:38.630Z,17.80
2023-01-12T12:26:38.626Z,11.70
2023-01-12T12:27:38.659Z,12.50
2023-01-12T12:28:38.604Z,11.60
2023-01-12T12:29:40.918Z,12.50
2023-01-12T12:30:38.635Z,10.90
2023-01-12T12:31:38.644Z,10.30
2023-01-12T12:32:38.593Z,10.10
2023-01-12T12:33:38.522Z,10.40
2023-01-12T12:34:38.518Z,10.80
2023-01-12T12:35:40.602Z,10.40
2023-01-12T12:36:38.506Z,11.20